sensor_id;sensor_type;location;lat;lon;timestamp;P1;durP1;ratioP1;P2;durP2;ratioP2
34765;SDS011;20984;43.508;1.504;2023-05-10T00:00:50;24.63;;;5.63;;
34765;SDS011;20984;43.508;1.504;2023-05-10T00:03:16;16.45;;;5.65;;
34765;SDS011;20984;43.508;1.504;2023-05-10T00:05:42;16.23;;;4.75;;
34765;SDS011;20984;43.508;1.504;2023-05-10T00:08:08;23.90;;;5.30;;
34765;SDS011;20984;43.508;1.504;2023-05-10T00:10:33;19.13;;;5.85;;
34765;SDS011;20984;43.508;1.504;2023-05-10T00:12:59;20.35;;;5.20;;
34765;SDS011;20984;43.508;1.504;2023-05-10T00:15:25;19.67;;;5.10;;
34765;SDS011;20984;43.508;1.504;2023-05-10T00:17:50;15.60;;;6.57;;
34765;SDS011;20984;43.508;1.504;2023-05-10T00:20:16;23.15;;;5.70;;
34765;SDS011;20984;43.508;1.504;2023-05-10T00:22:41;20.05;;;5.82;;
34765;SDS011;20984;43.508;1.504;2023-05-10T00:25:07;22.15;;;5.68;;
34765;SDS011;20984;43.508;1.504;2023-05-10T00:27:34;25.92;;;6.25;;
34765;SDS011;20984;43.508;1.504;2023-05-10T00:29:59;20.55;;;6.53;;
34765;SDS011;20984;43.508;1.504;2023-05-10T00:32:25;19.17;;;4.70;;
34765;SDS011;20984;43.508;1.504;2023-05-10T00:34:51;24.25;;;6.70;;
34765;SDS011;20984;43.508;1.504;2023-05-10T00:37:16;25.58;;;6.10;;
34765;SDS011;20984;43.508;1.504;2023-05-10T00:39:42;24.02;;;6.15;;
34765;SDS011;20984;43.508;1.504;2023-05-10T00:42:08;17.52;;;6.93;;
34765;SDS011;20984;43.508;1.504;2023-05-10T00:44:33;23.63;;;7.05;;
34765;SDS011;20984;43.508;1.504;2023-05-10T00:46:59;17.52;;;6.50;;
34765;SDS011;20984;43.508;1.504;2023-05-10T00:49:25;32.70;;;7.50;;
34765;SDS011;20984;43.508;1.504;2023-05-10T00:51:51;18.60;;;6.03;;
34765;SDS011;20984;43.508;1.504;2023-05-10T00:54:17;24.23;;;6.88;;
34765;SDS011;20984;43.508;1.504;2023-05-10T00:56:42;23.17;;;5.88;;
34765;SDS011;20984;43.508;1.504;2023-05-10T01:01:39;20.25;;;6.10;;
34765;SDS011;20984;43.508;1.504;2023-05-10T01:04:05;19.42;;;5.95;;
34765;SDS011;20984;43.508;1.504;2023-05-10T01:06:31;26.83;;;7.50;;
34765;SDS011;20984;43.508;1.504;2023-05-10T01:08:57;16.75;;;5.57;;
34765;SDS011;20984;43.508;1.504;2023-05-10T01:11:23;20.05;;;4.90;;
34765;SDS011;20984;43.508;1.504;2023-05-10T01:13:51;17.90;;;6.15;;
34765;SDS011;20984;43.508;1.504;2023-05-10T01:16:21;22.52;;;5.80;;
34765;SDS011;20984;43.508;1.504;2023-05-10T01:18:48;22.05;;;6.10;;
34765;SDS011;20984;43.508;1.504;2023-05-10T01:21:20;16.17;;;6.30;;
34765;SDS011;20984;43.508;1.504;2023-05-10T01:40:13;13.20;;;5.22;;
34765;SDS011;20984;43.508;1.504;2023-05-10T01:42:48;12.18;;;5.03;;
34765;SDS011;20984;43.508;1.504;2023-05-10T01:45:20;14.38;;;4.18;;
34765;SDS011;20984;43.508;1.504;2023-05-10T01:48:03;18.23;;;4.80;;
34765;SDS011;20984;43.508;1.504;2023-05-10T01:50:36;16.02;;;4.78;;
34765;SDS011;20984;43.508;1.504;2023-05-10T01:53:06;16.33;;;5.00;;
34765;SDS011;20984;43.508;1.504;2023-05-10T01:55:35;23.40;;;5.18;;
34765;SDS011;20984;43.508;1.504;2023-05-10T01:58:27;12.27;;;3.80;;
34765;SDS011;20984;43.508;1.504;2023-05-10T02:00:55;14.98;;;4.68;;
34765;SDS011;20984;43.508;1.504;2023-05-10T02:03:25;14.52;;;4.95;;
34765;SDS011;20984;43.508;1.504;2023-05-10T02:05:53;13.82;;;4.63;;
34765;SDS011;20984;43.508;1.504;2023-05-10T02:08:21;21.25;;;5.53;;
34765;SDS011;20984;43.508;1.504;2023-05-10T02:10:47;18.73;;;5.10;;
34765;SDS011;20984;43.508;1.504;2023-05-10T02:13:16;17.38;;;3.95;;
34765;SDS011;20984;43.508;1.504;2023-05-10T02:15:43;13.57;;;5.47;;
34765;SDS011;20984;43.508;1.504;2023-05-10T02:18:12;18.38;;;4.95;;
34765;SDS011;20984;43.508;1.504;2023-05-10T02:20:40;13.45;;;5.10;;
34765;SDS011;20984;43.508;1.504;2023-05-10T02:23:07;15.10;;;5.40;;
34765;SDS011;20984;43.508;1.504;2023-05-10T02:25:34;16.45;;;4.57;;
34765;SDS011;20984;43.508;1.504;2023-05-10T02:28:03;15.13;;;5.22;;
34765;SDS011;20984;43.508;1.504;2023-05-10T02:30:31;15.85;;;5.93;;
34765;SDS011;20984;43.508;1.504;2023-05-10T02:32:59;21.73;;;6.10;;
34765;SDS011;20984;43.508;1.504;2023-05-10T02:35:28;17.38;;;5.22;;
34765;SDS011;20984;43.508;1.504;2023-05-10T02:37:54;17.88;;;5.68;;
34765;SDS011;20984;43.508;1.504;2023-05-10T02:40:23;25.80;;;5.78;;
34765;SDS011;20984;43.508;1.504;2023-05-10T02:42:50;23.70;;;5.85;;
34765;SDS011;20984;43.508;1.504;2023-05-10T02:45:20;23.05;;;6.45;;
34765;SDS011;20984;43.508;1.504;2023-05-10T02:47:49;19.17;;;5.03;;
34765;SDS011;20984;43.508;1.504;2023-05-10T02:50:15;23.33;;;5.68;;
34765;SDS011;20984;43.508;1.504;2023-05-10T02:52:46;31.00;;;7.00;;
34765;SDS011;20984;43.508;1.504;2023-05-10T02:55:15;22.63;;;6.30;;
34765;SDS011;20984;43.508;1.504;2023-05-10T02:57:43;18.42;;;4.88;;
34765;SDS011;20984;43.508;1.504;2023-05-10T03:00:15;15.90;;;4.90;;
34765;SDS011;20984;43.508;1.504;2023-05-10T03:02:41;31.92;;;6.05;;
34765;SDS011;20984;43.508;1.504;2023-05-10T03:05:07;17.55;;;5.25;;
34765;SDS011;20984;43.508;1.504;2023-05-10T03:07:33;20.08;;;6.05;;
34765;SDS011;20984;43.508;1.504;2023-05-10T03:09:59;25.73;;;6.10;;
34765;SDS011;20984;43.508;1.504;2023-05-10T03:15:22;21.08;;;5.95;;
34765;SDS011;20984;43.508;1.504;2023-05-10T03:18:18;22.25;;;6.00;;
34765;SDS011;20984;43.508;1.504;2023-05-10T03:20:48;21.60;;;6.55;;
34765;SDS011;20984;43.508;1.504;2023-05-10T03:26:02;26.27;;;5.60;;
34765;SDS011;20984;43.508;1.504;2023-05-10T03:28:30;18.60;;;5.70;;
34765;SDS011;20984;43.508;1.504;2023-05-10T03:30:58;8.18;;;4.03;;
34765;SDS011;20984;43.508;1.504;2023-05-10T03:33:24;15.95;;;3.58;;
34765;SDS011;20984;43.508;1.504;2023-05-10T03:35:50;20.45;;;5.93;;
34765;SDS011;20984;43.508;1.504;2023-05-10T03:38:16;17.02;;;4.80;;
34765;SDS011;20984;43.508;1.504;2023-05-10T03:40:41;19.35;;;6.13;;
34765;SDS011;20984;43.508;1.504;2023-05-10T03:43:07;11.52;;;4.15;;
34765;SDS011;20984;43.508;1.504;2023-05-10T03:45:33;23.33;;;5.75;;
34765;SDS011;20984;43.508;1.504;2023-05-10T03:47:58;24.38;;;5.20;;
34765;SDS011;20984;43.508;1.504;2023-05-10T03:50:24;22.73;;;4.95;;
34765;SDS011;20984;43.508;1.504;2023-05-10T03:52:51;14.50;;;4.60;;
34765;SDS011;20984;43.508;1.504;2023-05-10T03:55:17;18.65;;;5.70;;
34765;SDS011;20984;43.508;1.504;2023-05-10T03:57:43;14.27;;;4.80;;
34765;SDS011;20984;43.508;1.504;2023-05-10T04:00:09;20.30;;;5.90;;
34765;SDS011;20984;43.508;1.504;2023-05-10T04:02:35;18.40;;;6.40;;
34765;SDS011;20984;43.508;1.504;2023-05-10T04:05:01;23.58;;;7.38;;
34765;SDS011;20984;43.508;1.504;2023-05-10T04:07:27;22.35;;;7.10;;
34765;SDS011;20984;43.508;1.504;2023-05-10T04:09:53;20.92;;;5.75;;
34765;SDS011;20984;43.508;1.504;2023-05-10T04:12:18;24.77;;;4.75;;
34765;SDS011;20984;43.508;1.504;2023-05-10T04:14:44;28.00;;;6.10;;
34765;SDS011;20984;43.508;1.504;2023-05-10T04:17:10;26.60;;;5.88;;
34765;SDS011;20984;43.508;1.504;2023-05-10T04:19:36;26.38;;;6.75;;
34765;SDS011;20984;43.508;1.504;2023-05-10T04:22:02;18.58;;;5.18;;
34765;SDS011;20984;43.508;1.504;2023-05-10T04:24:28;28.88;;;5.65;;
34765;SDS011;20984;43.508;1.504;2023-05-10T04:26:54;23.17;;;5.30;;
34765;SDS011;20984;43.508;1.504;2023-05-10T04:29:20;13.85;;;5.00;;
34765;SDS011;20984;43.508;1.504;2023-05-10T04:31:46;23.08;;;5.95;;
34765;SDS011;20984;43.508;1.504;2023-05-10T04:34:11;25.48;;;5.70;;
34765;SDS011;20984;43.508;1.504;2023-05-10T04:36:37;22.70;;;6.00;;
34765;SDS011;20984;43.508;1.504;2023-05-10T04:39:03;33.58;;;7.55;;
34765;SDS011;20984;43.508;1.504;2023-05-10T04:41:29;19.80;;;6.22;;
34765;SDS011;20984;43.508;1.504;2023-05-10T04:43:54;17.70;;;5.05;;
34765;SDS011;20984;43.508;1.504;2023-05-10T04:46:20;29.23;;;5.15;;
34765;SDS011;20984;43.508;1.504;2023-05-10T04:48:46;20.48;;;5.32;;
34765;SDS011;20984;43.508;1.504;2023-05-10T04:51:12;20.63;;;6.43;;
34765;SDS011;20984;43.508;1.504;2023-05-10T04:53:38;16.35;;;6.03;;
34765;SDS011;20984;43.508;1.504;2023-05-10T04:56:03;23.90;;;6.38;;
34765;SDS011;20984;43.508;1.504;2023-05-10T04:58:29;18.58;;;5.15;;
34765;SDS011;20984;43.508;1.504;2023-05-10T05:00:55;23.35;;;6.75;;
34765;SDS011;20984;43.508;1.504;2023-05-10T05:03:21;30.90;;;6.00;;
34765;SDS011;20984;43.508;1.504;2023-05-10T05:05:47;26.02;;;6.22;;
34765;SDS011;20984;43.508;1.504;2023-05-10T05:08:12;28.50;;;6.93;;
34765;SDS011;20984;43.508;1.504;2023-05-10T05:10:38;33.60;;;6.55;;
34765;SDS011;20984;43.508;1.504;2023-05-10T05:13:04;17.30;;;5.68;;
34765;SDS011;20984;43.508;1.504;2023-05-10T05:15:30;24.45;;;5.63;;
34765;SDS011;20984;43.508;1.504;2023-05-10T05:17:55;25.60;;;5.97;;
34765;SDS011;20984;43.508;1.504;2023-05-10T05:20:21;29.17;;;6.60;;
34765;SDS011;20984;43.508;1.504;2023-05-10T05:22:48;31.85;;;6.85;;
34765;SDS011;20984;43.508;1.504;2023-05-10T05:25:14;31.00;;;6.47;;
34765;SDS011;20984;43.508;1.504;2023-05-10T05:27:40;24.45;;;6.07;;
34765;SDS011;20984;43.508;1.504;2023-05-10T05:30:06;14.88;;;5.53;;
34765;SDS011;20984;43.508;1.504;2023-05-10T05:32:32;23.75;;;6.20;;
34765;SDS011;20984;43.508;1.504;2023-05-10T05:34:58;23.65;;;6.32;;
34765;SDS011;20984;43.508;1.504;2023-05-10T05:37:24;29.05;;;7.47;;
34765;SDS011;20984;43.508;1.504;2023-05-10T05:39:50;24.05;;;5.78;;
34765;SDS011;20984;43.508;1.504;2023-05-10T05:42:16;32.38;;;6.75;;
34765;SDS011;20984;43.508;1.504;2023-05-10T05:44:43;33.53;;;7.28;;
34765;SDS011;20984;43.508;1.504;2023-05-10T05:47:09;38.53;;;7.82;;
34765;SDS011;20984;43.508;1.504;2023-05-10T05:49:35;15.20;;;5.93;;
34765;SDS011;20984;43.508;1.504;2023-05-10T05:52:01;19.85;;;5.60;;
34765;SDS011;20984;43.508;1.504;2023-05-10T05:54:28;23.17;;;7.05;;
34765;SDS011;20984;43.508;1.504;2023-05-10T05:56:55;25.02;;;6.10;;
34765;SDS011;20984;43.508;1.504;2023-05-10T05:59:21;24.38;;;6.00;;
34765;SDS011;20984;43.508;1.504;2023-05-10T06:01:47;23.88;;;5.60;;
34765;SDS011;20984;43.508;1.504;2023-05-10T06:04:13;18.65;;;6.75;;
34765;SDS011;20984;43.508;1.504;2023-05-10T06:06:38;16.65;;;5.57;;
34765;SDS011;20984;43.508;1.504;2023-05-10T06:09:04;25.63;;;6.03;;
34765;SDS011;20984;43.508;1.504;2023-05-10T06:11:30;35.53;;;6.45;;
34765;SDS011;20984;43.508;1.504;2023-05-10T06:13:57;20.08;;;6.72;;
34765;SDS011;20984;43.508;1.504;2023-05-10T06:16:23;26.52;;;6.22;;
34765;SDS011;20984;43.508;1.504;2023-05-10T06:18:48;17.05;;;5.43;;
34765;SDS011;20984;43.508;1.504;2023-05-10T06:21:14;24.02;;;6.50;;
34765;SDS011;20984;43.508;1.504;2023-05-10T06:23:41;16.55;;;5.65;;
34765;SDS011;20984;43.508;1.504;2023-05-10T06:26:07;26.92;;;6.72;;
34765;SDS011;20984;43.508;1.504;2023-05-10T06:28:32;15.85;;;4.07;;
34765;SDS011;20984;43.508;1.504;2023-05-10T06:30:58;19.92;;;7.18;;
34765;SDS011;20984;43.508;1.504;2023-05-10T06:33:24;15.80;;;5.03;;
34765;SDS011;20984;43.508;1.504;2023-05-10T06:35:50;21.52;;;6.03;;
34765;SDS011;20984;43.508;1.504;2023-05-10T06:38:16;22.77;;;4.70;;
34765;SDS011;20984;43.508;1.504;2023-05-10T06:40:42;12.18;;;4.60;;
34765;SDS011;20984;43.508;1.504;2023-05-10T06:43:08;14.20;;;4.72;;
34765;SDS011;20984;43.508;1.504;2023-05-10T06:45:34;21.30;;;6.25;;
34765;SDS011;20984;43.508;1.504;2023-05-10T06:48:00;19.38;;;5.47;;
34765;SDS011;20984;43.508;1.504;2023-05-10T06:50:26;19.55;;;5.55;;
34765;SDS011;20984;43.508;1.504;2023-05-10T06:52:52;21.05;;;5.22;;
34765;SDS011;20984;43.508;1.504;2023-05-10T06:55:17;23.05;;;5.22;;
34765;SDS011;20984;43.508;1.504;2023-05-10T06:57:43;15.23;;;4.20;;
34765;SDS011;20984;43.508;1.504;2023-05-10T07:00:09;15.52;;;5.30;;
34765;SDS011;20984;43.508;1.504;2023-05-10T07:02:35;22.77;;;6.10;;
34765;SDS011;20984;43.508;1.504;2023-05-10T07:05:02;19.55;;;5.78;;
34765;SDS011;20984;43.508;1.504;2023-05-10T07:07:28;18.40;;;5.82;;
34765;SDS011;20984;43.508;1.504;2023-05-10T07:09:54;16.52;;;5.00;;
34765;SDS011;20984;43.508;1.504;2023-05-10T07:12:21;16.80;;;4.90;;
34765;SDS011;20984;43.508;1.504;2023-05-10T07:14:47;12.10;;;5.57;;
34765;SDS011;20984;43.508;1.504;2023-05-10T07:17:12;21.92;;;5.15;;
34765;SDS011;20984;43.508;1.504;2023-05-10T07:19:38;23.83;;;4.60;;
34765;SDS011;20984;43.508;1.504;2023-05-10T07:22:04;21.23;;;5.18;;
34765;SDS011;20984;43.508;1.504;2023-05-10T07:24:29;20.98;;;5.72;;
34765;SDS011;20984;43.508;1.504;2023-05-10T07:26:56;21.27;;;5.10;;
34765;SDS011;20984;43.508;1.504;2023-05-10T07:29:21;19.90;;;4.00;;
34765;SDS011;20984;43.508;1.504;2023-05-10T07:31:47;24.85;;;5.90;;
34765;SDS011;20984;43.508;1.504;2023-05-10T07:34:13;19.08;;;5.60;;
34765;SDS011;20984;43.508;1.504;2023-05-10T07:36:38;17.35;;;5.07;;
34765;SDS011;20984;43.508;1.504;2023-05-10T07:39:04;23.15;;;4.30;;
34765;SDS011;20984;43.508;1.504;2023-05-10T07:41:30;19.40;;;4.85;;
34765;SDS011;20984;43.508;1.504;2023-05-10T07:43:56;19.27;;;5.22;;
34765;SDS011;20984;43.508;1.504;2023-05-10T07:46:21;13.10;;;4.78;;
34765;SDS011;20984;43.508;1.504;2023-05-10T07:48:47;17.70;;;4.40;;
34765;SDS011;20984;43.508;1.504;2023-05-10T07:51:12;20.42;;;5.68;;
34765;SDS011;20984;43.508;1.504;2023-05-10T07:53:38;21.30;;;4.50;;
34765;SDS011;20984;43.508;1.504;2023-05-10T07:56:23;19.45;;;5.20;;
34765;SDS011;20984;43.508;1.504;2023-05-10T07:58:57;14.82;;;4.65;;
34765;SDS011;20984;43.508;1.504;2023-05-10T08:01:24;17.77;;;5.22;;
34765;SDS011;20984;43.508;1.504;2023-05-10T08:03:50;18.42;;;4.85;;
34765;SDS011;20984;43.508;1.504;2023-05-10T08:06:17;15.45;;;4.00;;
34765;SDS011;20984;43.508;1.504;2023-05-10T08:08:43;24.85;;;5.53;;
34765;SDS011;20984;43.508;1.504;2023-05-10T08:13:40;12.98;;;3.92;;
34765;SDS011;20984;43.508;1.504;2023-05-10T08:16:05;19.92;;;5.32;;
34765;SDS011;20984;43.508;1.504;2023-05-10T08:18:32;15.82;;;3.70;;
34765;SDS011;20984;43.508;1.504;2023-05-10T08:20:57;18.80;;;4.50;;
34765;SDS011;20984;43.508;1.504;2023-05-10T08:23:23;15.70;;;4.80;;
34765;SDS011;20984;43.508;1.504;2023-05-10T08:25:49;13.55;;;3.83;;
34765;SDS011;20984;43.508;1.504;2023-05-10T08:28:14;15.32;;;4.88;;
34765;SDS011;20984;43.508;1.504;2023-05-10T08:30:40;14.23;;;4.40;;
34765;SDS011;20984;43.508;1.504;2023-05-10T08:33:06;17.27;;;4.13;;
34765;SDS011;20984;43.508;1.504;2023-05-10T08:35:31;16.98;;;4.00;;
34765;SDS011;20984;43.508;1.504;2023-05-10T08:37:58;11.40;;;4.13;;
34765;SDS011;20984;43.508;1.504;2023-05-10T08:40:23;16.02;;;3.30;;
34765;SDS011;20984;43.508;1.504;2023-05-10T08:42:51;8.90;;;3.75;;
34765;SDS011;20984;43.508;1.504;2023-05-10T08:45:42;15.27;;;4.53;;
34765;SDS011;20984;43.508;1.504;2023-05-10T08:48:11;11.15;;;3.95;;
34765;SDS011;20984;43.508;1.504;2023-05-10T08:50:38;19.90;;;3.15;;
34765;SDS011;20984;43.508;1.504;2023-05-10T08:53:06;14.35;;;4.07;;
34765;SDS011;20984;43.508;1.504;2023-05-10T08:55:35;14.27;;;3.77;;
34765;SDS011;20984;43.508;1.504;2023-05-10T08:58:05;19.70;;;4.45;;
34765;SDS011;20984;43.508;1.504;2023-05-10T09:00:31;15.48;;;4.88;;
34765;SDS011;20984;43.508;1.504;2023-05-10T09:02:58;16.17;;;3.78;;
34765;SDS011;20984;43.508;1.504;2023-05-10T09:05:24;11.02;;;3.78;;
34765;SDS011;20984;43.508;1.504;2023-05-10T09:07:50;18.70;;;3.40;;
34765;SDS011;20984;43.508;1.504;2023-05-10T09:10:16;11.05;;;3.63;;
34765;SDS011;20984;43.508;1.504;2023-05-10T09:12:42;19.92;;;5.93;;
34765;SDS011;20984;43.508;1.504;2023-05-10T09:15:09;14.82;;;3.50;;
34765;SDS011;20984;43.508;1.504;2023-05-10T09:17:36;8.20;;;2.92;;
34765;SDS011;20984;43.508;1.504;2023-05-10T09:20:03;16.38;;;3.92;;
34765;SDS011;20984;43.508;1.504;2023-05-10T09:22:30;23.75;;;4.28;;
34765;SDS011;20984;43.508;1.504;2023-05-10T09:27:38;14.40;;;3.50;;
34765;SDS011;20984;43.508;1.504;2023-05-10T09:30:05;10.65;;;3.92;;
34765;SDS011;20984;43.508;1.504;2023-05-10T09:32:42;10.75;;;3.15;;
34765;SDS011;20984;43.508;1.504;2023-05-10T09:35:12;10.98;;;2.75;;
34765;SDS011;20984;43.508;1.504;2023-05-10T09:37:39;9.40;;;2.50;;
34765;SDS011;20984;43.508;1.504;2023-05-10T09:40:11;11.23;;;4.03;;
34765;SDS011;20984;43.508;1.504;2023-05-10T09:42:38;7.85;;;3.25;;
34765;SDS011;20984;43.508;1.504;2023-05-10T09:45:04;12.27;;;3.22;;
34765;SDS011;20984;43.508;1.504;2023-05-10T09:47:32;11.13;;;2.83;;
34765;SDS011;20984;43.508;1.504;2023-05-10T09:49:58;10.77;;;2.47;;
34765;SDS011;20984;43.508;1.504;2023-05-10T09:52:28;13.70;;;2.88;;
34765;SDS011;20984;43.508;1.504;2023-05-10T09:55:12;17.73;;;3.63;;
34765;SDS011;20984;43.508;1.504;2023-05-10T09:57:40;10.48;;;3.60;;
34765;SDS011;20984;43.508;1.504;2023-05-10T10:00:06;8.77;;;2.95;;
34765;SDS011;20984;43.508;1.504;2023-05-10T10:02:32;13.35;;;3.30;;
34765;SDS011;20984;43.508;1.504;2023-05-10T10:05:00;10.18;;;2.80;;
34765;SDS011;20984;43.508;1.504;2023-05-10T10:07:27;12.27;;;4.28;;
34765;SDS011;20984;43.508;1.504;2023-05-10T10:09:54;17.60;;;4.45;;
34765;SDS011;20984;43.508;1.504;2023-05-10T10:12:20;20.45;;;3.90;;
34765;SDS011;20984;43.508;1.504;2023-05-10T10:14:46;7.60;;;2.88;;
34765;SDS011;20984;43.508;1.504;2023-05-10T10:17:13;17.45;;;4.30;;
34765;SDS011;20984;43.508;1.504;2023-05-10T10:19:39;12.43;;;3.72;;
34765;SDS011;20984;43.508;1.504;2023-05-10T10:22:06;12.25;;;3.60;;
34765;SDS011;20984;43.508;1.504;2023-05-10T10:24:32;12.50;;;2.78;;
34765;SDS011;20984;43.508;1.504;2023-05-10T10:30:07;14.18;;;2.53;;
34765;SDS011;20984;43.508;1.504;2023-05-10T10:35:13;11.20;;;3.17;;
34765;SDS011;20984;43.508;1.504;2023-05-10T10:37:47;10.88;;;2.70;;
34765;SDS011;20984;43.508;1.504;2023-05-10T10:42:51;13.15;;;2.17;;
34765;SDS011;20984;43.508;1.504;2023-05-10T10:45:18;12.75;;;3.13;;
34765;SDS011;20984;43.508;1.504;2023-05-10T10:47:44;13.25;;;2.75;;
34765;SDS011;20984;43.508;1.504;2023-05-10T10:50:10;3.40;;;2.05;;
34765;SDS011;20984;43.508;1.504;2023-05-10T10:52:41;5.60;;;2.55;;
34765;SDS011;20984;43.508;1.504;2023-05-10T10:55:09;8.93;;;2.70;;
34765;SDS011;20984;43.508;1.504;2023-05-10T11:03:15;14.18;;;2.47;;
34765;SDS011;20984;43.508;1.504;2023-05-10T11:08:16;8.60;;;2.85;;
34765;SDS011;20984;43.508;1.504;2023-05-10T11:10:52;16.67;;;2.92;;
34765;SDS011;20984;43.508;1.504;2023-05-10T11:13:26;9.15;;;2.80;;
34765;SDS011;20984;43.508;1.504;2023-05-10T11:15:57;11.52;;;2.22;;
34765;SDS011;20984;43.508;1.504;2023-05-10T11:18:25;6.93;;;2.40;;
34765;SDS011;20984;43.508;1.504;2023-05-10T11:23:21;14.50;;;3.67;;
34765;SDS011;20984;43.508;1.504;2023-05-10T11:25:47;10.80;;;2.40;;
34765;SDS011;20984;43.508;1.504;2023-05-10T11:28:16;10.52;;;3.70;;
34765;SDS011;20984;43.508;1.504;2023-05-10T11:30:43;10.70;;;2.95;;
34765;SDS011;20984;43.508;1.504;2023-05-10T11:33:14;10.23;;;2.80;;
34765;SDS011;20984;43.508;1.504;2023-05-10T11:35:41;10.40;;;2.05;;
34765;SDS011;20984;43.508;1.504;2023-05-10T11:38:10;15.82;;;3.92;;
34765;SDS011;20984;43.508;1.504;2023-05-10T11:40:37;4.40;;;2.35;;
34765;SDS011;20984;43.508;1.504;2023-05-10T11:43:03;9.77;;;2.70;;
34765;SDS011;20984;43.508;1.504;2023-05-10T11:45:33;11.07;;;2.67;;
34765;SDS011;20984;43.508;1.504;2023-05-10T11:48:00;8.70;;;3.33;;
34765;SDS011;20984;43.508;1.504;2023-05-10T11:50:26;13.65;;;3.50;;
34765;SDS011;20984;43.508;1.504;2023-05-10T11:52:53;9.52;;;3.40;;
34765;SDS011;20984;43.508;1.504;2023-05-10T11:55:22;10.73;;;3.40;;
34765;SDS011;20984;43.508;1.504;2023-05-10T11:57:53;11.55;;;3.15;;
34765;SDS011;20984;43.508;1.504;2023-05-10T12:00:19;7.75;;;2.63;;
34765;SDS011;20984;43.508;1.504;2023-05-10T12:02:45;6.10;;;2.53;;
34765;SDS011;20984;43.508;1.504;2023-05-10T12:05:11;5.38;;;2.55;;
34765;SDS011;20984;43.508;1.504;2023-05-10T12:07:37;4.63;;;2.40;;
34765;SDS011;20984;43.508;1.504;2023-05-10T12:10:04;4.93;;;2.28;;
34765;SDS011;20984;43.508;1.504;2023-05-10T12:12:41;4.18;;;1.63;;
34765;SDS011;20984;43.508;1.504;2023-05-10T12:15:12;4.15;;;2.22;;
34765;SDS011;20984;43.508;1.504;2023-05-10T12:17:52;8.40;;;1.60;;
34765;SDS011;20984;43.508;1.504;2023-05-10T12:20:22;9.23;;;2.17;;
34765;SDS011;20984;43.508;1.504;2023-05-10T12:25:16;4.03;;;1.98;;
34765;SDS011;20984;43.508;1.504;2023-05-10T12:27:49;4.50;;;2.00;;
34765;SDS011;20984;43.508;1.504;2023-05-10T12:30:26;6.78;;;1.95;;
34765;SDS011;20984;43.508;1.504;2023-05-10T12:32:53;9.18;;;2.78;;
34765;SDS011;20984;43.508;1.504;2023-05-10T12:35:24;6.13;;;1.83;;
34765;SDS011;20984;43.508;1.504;2023-05-10T12:37:50;7.65;;;2.20;;
34765;SDS011;20984;43.508;1.504;2023-05-10T12:40:16;13.35;;;2.20;;
34765;SDS011;20984;43.508;1.504;2023-05-10T12:42:42;7.80;;;2.05;;
34765;SDS011;20984;43.508;1.504;2023-05-10T12:45:10;5.45;;;2.03;;
34765;SDS011;20984;43.508;1.504;2023-05-10T12:47:36;10.57;;;2.40;;
34765;SDS011;20984;43.508;1.504;2023-05-10T12:50:02;8.27;;;2.13;;
34765;SDS011;20984;43.508;1.504;2023-05-10T12:52:29;7.55;;;2.05;;
34765;SDS011;20984;43.508;1.504;2023-05-10T12:54:56;7.13;;;1.98;;
34765;SDS011;20984;43.508;1.504;2023-05-10T12:57:22;4.85;;;2.60;;
34765;SDS011;20984;43.508;1.504;2023-05-10T12:59:48;4.05;;;1.60;;
34765;SDS011;20984;43.508;1.504;2023-05-10T13:02:15;5.00;;;2.05;;
34765;SDS011;20984;43.508;1.504;2023-05-10T13:04:43;4.95;;;1.55;;
34765;SDS011;20984;43.508;1.504;2023-05-10T13:07:09;4.82;;;1.75;;
34765;SDS011;20984;43.508;1.504;2023-05-10T13:09:35;3.58;;;1.75;;
34765;SDS011;20984;43.508;1.504;2023-05-10T13:12:01;4.53;;;1.45;;
34765;SDS011;20984;43.508;1.504;2023-05-10T13:14:27;4.38;;;1.50;;
34765;SDS011;20984;43.508;1.504;2023-05-10T13:16:52;2.67;;;1.42;;
34765;SDS011;20984;43.508;1.504;2023-05-10T13:19:18;3.95;;;1.50;;
34765;SDS011;20984;43.508;1.504;2023-05-10T13:21:44;6.65;;;1.70;;
34765;SDS011;20984;43.508;1.504;2023-05-10T13:24:10;2.90;;;1.20;;
34765;SDS011;20984;43.508;1.504;2023-05-10T13:26:38;6.03;;;2.03;;
34765;SDS011;20984;43.508;1.504;2023-05-10T13:29:07;4.70;;;1.45;;
34765;SDS011;20984;43.508;1.504;2023-05-10T13:31:33;7.00;;;1.45;;
34765;SDS011;20984;43.508;1.504;2023-05-10T13:33:59;4.40;;;1.60;;
34765;SDS011;20984;43.508;1.504;2023-05-10T13:36:24;2.95;;;1.80;;
34765;SDS011;20984;43.508;1.504;2023-05-10T13:38:50;5.47;;;1.83;;
34765;SDS011;20984;43.508;1.504;2023-05-10T13:41:16;5.20;;;1.50;;
34765;SDS011;20984;43.508;1.504;2023-05-10T13:43:41;7.00;;;2.10;;
34765;SDS011;20984;43.508;1.504;2023-05-10T13:46:07;4.47;;;1.77;;
34765;SDS011;20984;43.508;1.504;2023-05-10T13:48:33;4.10;;;1.70;;
34765;SDS011;20984;43.508;1.504;2023-05-10T13:50:58;7.10;;;2.28;;
34765;SDS011;20984;43.508;1.504;2023-05-10T13:53:24;4.38;;;1.75;;
34765;SDS011;20984;43.508;1.504;2023-05-10T13:55:50;7.90;;;1.65;;
34765;SDS011;20984;43.508;1.504;2023-05-10T13:58:15;3.50;;;1.33;;
34765;SDS011;20984;43.508;1.504;2023-05-10T14:00:41;7.40;;;1.70;;
34765;SDS011;20984;43.508;1.504;2023-05-10T14:03:06;5.50;;;1.30;;
34765;SDS011;20984;43.508;1.504;2023-05-10T14:05:34;5.53;;;2.03;;
34765;SDS011;20984;43.508;1.504;2023-05-10T14:07:59;5.55;;;1.98;;
34765;SDS011;20984;43.508;1.504;2023-05-10T14:10:25;5.07;;;1.33;;
34765;SDS011;20984;43.508;1.504;2023-05-10T14:12:50;5.28;;;1.75;;
34765;SDS011;20984;43.508;1.504;2023-05-10T14:15:16;3.63;;;1.58;;
34765;SDS011;20984;43.508;1.504;2023-05-10T14:17:42;5.22;;;1.60;;
34765;SDS011;20984;43.508;1.504;2023-05-10T14:20:08;18.48;;;2.78;;
34765;SDS011;20984;43.508;1.504;2023-05-10T14:22:34;4.88;;;1.42;;
34765;SDS011;20984;43.508;1.504;2023-05-10T14:25:00;7.38;;;2.22;;
34765;SDS011;20984;43.508;1.504;2023-05-10T14:27:26;6.25;;;1.73;;
34765;SDS011;20984;43.508;1.504;2023-05-10T14:29:51;4.93;;;1.63;;
34765;SDS011;20984;43.508;1.504;2023-05-10T14:32:18;5.72;;;1.70;;
34765;SDS011;20984;43.508;1.504;2023-05-10T14:34:43;8.38;;;2.22;;
34765;SDS011;20984;43.508;1.504;2023-05-10T14:37:10;3.15;;;1.63;;
34765;SDS011;20984;43.508;1.504;2023-05-10T14:39:36;5.30;;;1.45;;
34765;SDS011;20984;43.508;1.504;2023-05-10T14:42:02;4.72;;;1.88;;
34765;SDS011;20984;43.508;1.504;2023-05-10T14:44:28;5.65;;;2.00;;
34765;SDS011;20984;43.508;1.504;2023-05-10T14:46:54;5.30;;;1.88;;
34765;SDS011;20984;43.508;1.504;2023-05-10T14:49:20;7.18;;;1.77;;
34765;SDS011;20984;43.508;1.504;2023-05-10T14:51:47;4.75;;;2.78;;
34765;SDS011;20984;43.508;1.504;2023-05-10T14:54:13;8.75;;;2.85;;
34765;SDS011;20984;43.508;1.504;2023-05-10T14:56:39;9.45;;;2.72;;
34765;SDS011;20984;43.508;1.504;2023-05-10T14:59:06;10.25;;;2.75;;
34765;SDS011;20984;43.508;1.504;2023-05-10T15:01:32;7.13;;;2.40;;
34765;SDS011;20984;43.508;1.504;2023-05-10T15:04:00;10.38;;;2.80;;
34765;SDS011;20984;43.508;1.504;2023-05-10T15:06:32;7.97;;;2.88;;
34765;SDS011;20984;43.508;1.504;2023-05-10T15:08:59;8.75;;;2.20;;
34765;SDS011;20984;43.508;1.504;2023-05-10T15:11:26;8.82;;;2.25;;
34765;SDS011;20984;43.508;1.504;2023-05-10T15:13:52;6.80;;;2.55;;
34765;SDS011;20984;43.508;1.504;2023-05-10T15:16:18;6.28;;;1.98;;
34765;SDS011;20984;43.508;1.504;2023-05-10T15:18:44;8.10;;;2.50;;
34765;SDS011;20984;43.508;1.504;2023-05-10T15:21:10;3.92;;;1.77;;
34765;SDS011;20984;43.508;1.504;2023-05-10T15:23:36;7.35;;;2.03;;
34765;SDS011;20984;43.508;1.504;2023-05-10T15:26:02;7.65;;;1.73;;
34765;SDS011;20984;43.508;1.504;2023-05-10T15:28:28;10.05;;;2.53;;